Time;durP1;ratioP1;P1;durP2;ratioP2;P2;SDS_P1;SDS_P2;PMS_P1;PMS_P2;Temp;Humidity;BMP_temperature;BMP_pressure;BME280_temperature;BME280_humidity;BME280_pressure;Samples;Min_cycle;Max_cycle;Signal;HPM_P1;HPM_P2
2021/12/06 00:02:24;;;;;;;;;;;;;;;22.21;4.29;101466.31;5135820;27;20288;-69
2021/12/06 00:04:49;;;;;;;;;;;;;;;22.24;4.16;101481.34;5135778;27;19912;-70
2021/12/06 00:07:19;;;;;;;;;;;;;;;22.24;4.22;101475.91;5135614;27;20055;-70
2021/12/06 00:09:45;;;;;;;;;;;;;;;22.26;4.09;101479.22;5135730;27;19986;-70
2021/12/06 00:12:10;;;;;;;;;;;;;;;22.24;4.15;101473.19;5135641;27;20401;-69
2021/12/06 00:14:37;;;;;;;;;;;;;;;22.22;4.37;101478.88;5135698;27;19919;-69
2021/12/06 00:17:03;;;;;;;;;;;;;;;22.21;4.29;101482.66;5135119;27;19998;-69
2021/12/06 00:19:29;;;;;;;;;;;;;;;22.20;4.25;101475.56;5135309;27;19919;-70
2021/12/06 00:21:54;;;;;;;;;;;;;;;22.20;4.18;101472.84;5135507;27;19911;-69
2021/12/06 00:24:19;;;;;;;;;;;;;;;22.21;4.18;101471.75;5135500;27;20349;-69
2021/12/06 00:26:45;;;;;;;;;;;;;;;22.19;4.21;101471.19;5135367;27;20014;-69
2021/12/06 00:29:10;;;;;;;;;;;;;;;22.23;4.19;101475.09;5135526;27;20409;-69
2021/12/06 00:31:35;;;;;;;;;;;;;;;22.22;4.19;101473.44;5135015;27;19915;-69
2021/12/06 00:34:04;;;;;;;;;;;;;;;22.23;4.18;101476.97;5135388;27;19915;-69
2021/12/06 00:36:31;;;;;;;;;;;;;;;22.18;4.13;101477.72;5134978;27;20365;-69
2021/12/06 00:38:57;;;;;;;;;;;;;;;22.20;4.22;101470.13;5135096;27;19929;-69
2021/12/06 00:41:22;;;;;;;;;;;;;;;22.22;4.21;101467.97;5134909;27;19912;-69
2021/12/06 00:43:47;;;;;;;;;;;;;;;22.22;4.21;101467.16;5135250;27;19919;-69
2021/12/06 00:46:13;;;;;;;;;;;;;;;22.23;4.18;101452.47;5116777;28;20376;-70
2021/12/06 00:48:38;;;;;;;;;;;;;;;22.23;4.23;101455.19;5135114;27;19912;-69
2021/12/06 00:51:03;;;;;;;;;;;;;;;22.21;4.24;101455.41;5134837;27;19918;-70
2021/12/06 00:53:28;;;;;;;;;;;;;;;22.21;4.23;101449.16;5134737;27;20300;-70
2021/12/06 00:55:54;;;;;;;;;;;;;;;22.21;4.23;101447.25;5135083;28;19951;-70
2021/12/06 00:58:19;;;;;;;;;;;;;;;22.19;4.23;101446.66;5134969;28;19917;-70
2021/12/06 01:00:45;;;;;;;;;;;;;;;22.21;4.26;101444.53;5135102;28;20428;-69
2021/12/06 01:03:15;;;;;;;;;;;;;;;22.22;4.35;101448.91;5134680;28;19915;-69
2021/12/06 01:05:40;;;;;;;;;;;;;;;22.22;4.28;101445.38;5134653;28;20424;-70
2021/12/06 01:08:05;;;;;;;;;;;;;;;22.24;4.35;101438.63;5134645;28;19947;-69
2021/12/06 01:10:31;;;;;;;;;;;;;;;22.23;4.37;101439.69;5134852;28;20008;-69
2021/12/06 01:12:56;;;;;;;;;;;;;;;22.23;4.35;101441.56;5134936;28;20349;-69
2021/12/06 01:15:21;;;;;;;;;;;;;;;22.22;4.30;101435.31;5135040;28;20353;-69
2021/12/06 01:17:46;;;;;;;;;;;;;;;22.22;4.48;101434.50;5135407;27;19915;-70
2021/12/06 01:20:12;;;;;;;;;;;;;;;22.24;4.55;101441.34;5139015;27;20361;-69
2021/12/06 01:22:51;;;;;;;;;;;;;;;22.24;4.45;101430.44;5139009;27;19918;-70
2021/12/06 01:25:30;;;;;;;;;;;;;;;22.23;4.43;101427.97;5138952;27;19911;-70
2021/12/06 01:30:49;;;;;;;;;;;;;;;22.22;4.57;101413.53;5139286;27;19915;-69
2021/12/06 01:41:28;;;;;;;;;;;;;;;22.19;4.64;101419.44;5095776;28;19963;-69
2021/12/06 01:44:12;;;;;;;;;;;;;;;22.21;4.65;101406.41;5095241;28;19970;-69
2021/12/06 01:46:38;;;;;;;;;;;;;;;22.22;4.59;101405.34;5095295;28;20358;-69
2021/12/06 01:49:04;;;;;;;;;;;;;;;22.20;4.65;101404.78;5095538;28;20002;-69
2021/12/06 01:51:29;;;;;;;;;;;;;;;22.19;4.68;101405.84;5095282;28;19951;-69
2021/12/06 01:53:55;;;;;;;;;;;;;;;22.21;4.69;101406.41;5095444;28;19916;-69
2021/12/06 01:56:20;;;;;;;;;;;;;;;22.18;4.63;101412.38;5095248;28;20016;-69
2021/12/06 01:58:45;;;;;;;;;;;;;;;22.22;4.71;101412.72;5095142;28;19918;-69
2021/12/06 02:01:10;;;;;;;;;;;;;;;22.22;4.67;101405.34;5095381;28;20370;-69
2021/12/06 02:03:36;;;;;;;;;;;;;;;22.26;4.68;101411.16;5095191;28;19943;-70
2021/12/06 02:06:01;;;;;;;;;;;;;;;22.21;4.70;101406.41;5095240;28;20251;-69
2021/12/06 02:08:26;;;;;;;;;;;;;;;22.24;4.63;101405.13;5095919;28;20006;-69
2021/12/06 02:10:58;;;;;;;;;;;;;;;22.27;4.69;101405.50;5095353;28;20030;-69
2021/12/06 02:13:24;;;;;;;;;;;;;;;22.25;4.69;101394.00;5122256;27;19912;-69
2021/12/06 02:15:52;;;;;;;;;;;;;;;22.24;4.62;101396.94;5138382;27;19911;-69
2021/12/06 02:21:12;;;;;;;;;;;;;;;22.23;4.63;101387.13;5056306;28;19913;-70
2021/12/06 02:23:37;;;;;;;;;;;;;;;22.26;4.59;101392.09;5054856;28;19963;-69
2021/12/06 02:26:03;;;;;;;;;;;;;;;22.27;4.67;101391.88;5054354;28;20007;-69
2021/12/06 02:28:28;;;;;;;;;;;;;;;22.22;4.72;101396.38;5054160;28;20383;-69
2021/12/06 02:30:53;;;;;;;;;;;;;;;22.21;4.65;101392.81;5036472;28;19967;-69
2021/12/06 02:33:18;;;;;;;;;;;;;;;22.28;4.63;101387.25;5054374;28;19924;-69
2021/12/06 02:35:43;;;;;;;;;;;;;;;22.23;4.72;101387.97;5054067;28;19917;-69
2021/12/06 02:38:09;;;;;;;;;;;;;;;22.24;4.71;101389.59;5053975;28;19956;-69
2021/12/06 02:40:35;;;;;;;;;;;;;;;22.24;4.68;101400.50;5053947;28;19913;-69
2021/12/06 02:43:00;;;;;;;;;;;;;;;22.25;4.68;101399.44;5053789;28;20321;-69
2021/12/06 02:45:26;;;;;;;;;;;;;;;22.26;4.69;101387.47;5054545;28;20008;-69
2021/12/06 02:47:53;;;;;;;;;;;;;;;22.22;4.63;101393.66;5053696;28;19956;-69
2021/12/06 02:50:19;;;;;;;;;;;;;;;22.23;4.61;101382.53;5053680;28;20382;-69
2021/12/06 02:52:44;;;;;;;;;;;;;;;22.22;4.69;101385.47;5054078;28;19913;-69
2021/12/06 02:55:53;;;;;;;;;;;;;;;22.25;4.67;101380.38;5053787;28;19912;-69
2021/12/06 02:57:59;;;;;;;;;;;;;;;22.26;4.71;101381.19;5103597;27;19911;-69
2021/12/06 03:00:24;;;;;;;;;;;;;;;22.25;4.78;101387.69;5136793;27;20365;-69
2021/12/06 03:02:49;;;;;;;;;;;;;;;22.23;4.69;101377.06;5137090;27;19918;-69
2021/12/06 03:05:14;;;;;;;;;;;;;;;22.26;4.79;101376.56;5136897;27;19934;-69
2021/12/06 03:07:40;;;;;;;;;;;;;;;22.27;4.71;101378.25;5136984;27;19918;-69
2021/12/06 03:10:06;;;;;;;;;;;;;;;22.25;4.81;101380.38;5136958;27;19949;-69
2021/12/06 03:12:31;;;;;;;;;;;;;;;22.26;4.70;101383.91;5136590;27;19915;-69
2021/12/06 03:14:57;;;;;;;;;;;;;;;22.28;4.69;101376.38;5136989;27;19983;-69
2021/12/06 03:17:22;;;;;;;;;;;;;;;22.26;4.69;101375.75;5136394;27;20292;-69
2021/12/06 03:19:48;;;;;;;;;;;;;;;22.28;4.69;101382.66;5137149;27;19933;-69
2021/12/06 03:22:13;;;;;;;;;;;;;;;22.29;4.72;101380.75;5136799;27;20003;-70
2021/12/06 03:24:38;;;;;;;;;;;;;;;22.28;4.75;101371.75;5136705;27;19918;-69
2021/12/06 03:27:04;;;;;;;;;;;;;;;22.31;4.72;101373.97;5136733;27;19917;-69
2021/12/06 03:29:29;;;;;;;;;;;;;;;22.34;4.72;101377.31;5136441;27;19915;-69
2021/12/06 03:31:54;;;;;;;;;;;;;;;22.30;4.82;101366.91;5136508;27;19918;-69
2021/12/06 03:34:20;;;;;;;;;;;;;;;22.29;4.76;101365.22;5136425;27;19911;-69
2021/12/06 03:36:45;;;;;;;;;;;;;;;22.29;4.69;101370.69;5136461;27;19912;-69
2021/12/06 03:39:12;;;;;;;;;;;;;;;22.33;4.70;101364.75;5137009;27;19942;-69
2021/12/06 03:41:37;;;;;;;;;;;;;;;22.30;4.75;101372.34;5135641;27;19935;-69
2021/12/06 03:44:03;;;;;;;;;;;;;;;22.29;4.81;101370.69;5135971;27;19912;-69
2021/12/06 03:46:28;;;;;;;;;;;;;;;22.31;4.75;101373.16;5137068;27;19912;-69
2021/12/06 03:48:54;;;;;;;;;;;;;;;22.28;4.77;101369.03;5136052;27;19911;-69
2021/12/06 03:51:19;;;;;;;;;;;;;;;22.27;4.89;101364.66;5135748;27;20428;-69
2021/12/06 03:53:44;;;;;;;;;;;;;;;22.27;4.90;101372.81;5136159;27;20361;-69
2021/12/06 03:56:12;;;;;;;;;;;;;;;22.30;4.84;101372.34;5136018;27;19938;-69
2021/12/06 03:58:37;;;;;;;;;;;;;;;22.28;4.90;101363.59;5136217;27;19956;-69
2021/12/06 04:01:03;;;;;;;;;;;;;;;22.29;4.98;101370.69;5135830;27;20335;-69
2021/12/06 04:03:28;;;;;;;;;;;;;;;22.33;4.92;101381.09;5135915;27;20375;-69
2021/12/06 04:05:54;;;;;;;;;;;;;;;22.32;4.89;101377.56;5135778;27;20386;-69
2021/12/06 04:08:19;;;;;;;;;;;;;;;22.39;4.95;101369.25;5135742;27;20353;-69
2021/12/06 04:10:45;;;;;;;;;;;;;;;22.39;4.90;101372.78;5135527;27;19918;-69
2021/12/06 04:13:10;;;;;;;;;;;;;;;22.39;4.85;101364.63;5135786;27;19911;-69
2021/12/06 04:15:38;;;;;;;;;;;;;;;22.39;4.91;101361.06;5135789;27;20365;-69
2021/12/06 04:18:03;;;;;;;;;;;;;;;22.39;5.00;101359.16;5113466;28;20358;-69
2021/12/06 04:20:30;;;;;;;;;;;;;;;22.41;4.87;101361.66;5114778;28;20316;-69
2021/12/06 04:22:56;;;;;;;;;;;;;;;22.39;4.97;101361.06;5114998;28;19919;-70
2021/12/06 04:25:21;;;;;;;;;;;;;;;22.39;5.10;101358.34;5114696;28;20053;-69
2021/12/06 04:27:54;;;;;;;;;;;;;;;22.38;5.14;101352.06;5114969;28;19912;-69
2021/12/06 04:30:19;;;;;;;;;;;;;;;22.41;5.01;101357.03;5114880;28;19916;-69
2021/12/06 04:32:45;;;;;;;;;;;;;;;22.41;5.01;101350.75;5114868;28;19912;-68
2021/12/06 04:35:10;;;;;;;;;;;;;;;22.47;5.04;101333.44;5110583;28;20420;-69
2021/12/06 04:37:35;;;;;;;;;;;;;;;22.44;5.01;101344.81;5114792;28;19934;-68
2021/12/06 04:40:01;;;;;;;;;;;;;;;22.44;5.04;101332.03;5114286;28;19924;-68
2021/12/06 04:42:26;;;;;;;;;;;;;;;22.42;5.01;101325.16;5114470;28;19962;-68
2021/12/06 04:44:52;;;;;;;;;;;;;;;22.42;5.07;101325.16;5114594;28;19919;-69
2021/12/06 04:47:18;;;;;;;;;;;;;;;22.44;5.07;101323.84;5114531;28;19933;-68
2021/12/06 04:49:44;;;;;;;;;;;;;;;22.42;5.03;101319.72;5114371;28;20407;-68
2021/12/06 04:52:10;;;;;;;;;;;;;;;22.40;5.18;101310.97;5113819;28;19919;-68
2021/12/06 04:54:37;;;;;;;;;;;;;;;22.42;5.16;101314.25;5114577;28;19912;-68
2021/12/06 04:57:07;;;;;;;;;;;;;;;22.42;5.26;101315.13;5114609;28;19919;-68
2021/12/06 04:59:34;;;;;;;;;;;;;;;22.40;5.20;101306.34;5114420;28;19918;-69
2021/12/06 05:02:00;;;;;;;;;;;;;;;22.41;5.17;101313.44;5114909;28;19912;-68
2021/12/06 05:04:26;;;;;;;;;;;;;;;22.40;5.18;101310.97;5114540;28;20415;-68
2021/12/06 05:06:57;;;;;;;;;;;;;;;22.43;5.20;101307.75;5114395;28;20011;-68
2021/12/06 05:09:24;;;;;;;;;;;;;;;22.38;5.33;101296.78;5114124;28;19911;-68
2021/12/06 05:11:49;;;;;;;;;;;;;;;22.39;5.23;101293.00;5114523;28;19912;-68
2021/12/06 05:14:15;;;;;;;;;;;;;;;22.41;5.27;101301.75;5114284;28;19998;-68
2021/12/06 05:16:40;;;;;;;;;;;;;;;22.39;5.30;101293.81;5117279;28;20012;-68
2021/12/06 05:19:05;;;;;;;;;;;;;;;22.42;5.24;101292.47;5130557;28;20364;-68
2021/12/06 05:21:31;;;;;;;;;;;;;;;22.43;5.30;101289.50;5134874;28;19915;-68
2021/12/06 05:23:56;;;;;;;;;;;;;;;22.42;5.30;101292.47;5134600;28;19911;-68
2021/12/06 05:26:21;;;;;;;;;;;;;;;22.42;5.43;101279.72;5135267;28;19911;-69
2021/12/06 05:28:48;;;;;;;;;;;;;;;22.40;5.47;101291.91;5134844;28;19915;-69
2021/12/06 05:31:20;;;;;;;;;;;;;;;22.41;5.48;101279.94;5134415;28;19918;-69
2021/12/06 05:33:51;;;;;;;;;;;;;;;22.42;5.46;101285.16;5134784;28;19998;-69
2021/12/06 05:36:17;;;;;;;;;;;;;;;22.41;5.46;101286.22;5134790;28;19911;-69
2021/12/06 05:38:42;;;;;;;;;;;;;;;22.43;5.48;101288.69;5134381;28;19918;-69
2021/12/06 05:41:07;;;;;;;;;;;;;;;22.38;5.51;101296.78;5134378;28;19956;-69
2021/12/06 05:43:33;;;;;;;;;;;;;;;22.44;5.55;101296.63;5134400;28;19957;-69
2021/12/06 05:45:58;;;;;;;;;;;;;;;22.46;5.53;101282.75;5134732;28;19958;-69
2021/12/06 05:48:23;;;;;;;;;;;;;;;22.44;5.33;101279.47;5134397;28;20021;-69
2021/12/06 05:50:48;;;;;;;;;;;;;;;22.43;5.49;101266.91;5134832;28;19919;-69
2021/12/06 05:53:14;;;;;;;;;;;;;;;22.42;5.63;101255.19;5134633;28;19982;-69
2021/12/06 05:55:39;;;;;;;;;;;;;;;22.44;5.43;101268.56;5134391;28;19911;-69
2021/12/06 05:58:05;;;;;;;;;;;;;;;22.43;5.57;101272.34;5134504;28;19965;-69
2021/12/06 06:00:32;;;;;;;;;;;;;;;22.43;5.46;101273.16;5134560;28;19915;-69
2021/12/06 06:02:57;;;;;;;;;;;;;;;22.44;5.55;101274.84;5134802;28;19966;-69
2021/12/06 06:05:23;;;;;;;;;;;;;;;22.40;5.56;101270.94;5137775;27;20350;-69
2021/12/06 06:07:48;;;;;;;;;;;;;;;22.39;5.67;101282.91;5138326;27;19976;-69
2021/12/06 06:10:13;;;;;;;;;;;;;;;22.44;5.55;101279.47;5138371;27;20368;-69
2021/12/06 06:12:39;;;;;;;;;;;;;;;22.43;5.58;101269.63;5138365;27;19911;-69
2021/12/06 06:15:04;;;;;;;;;;;;;;;22.42;5.62;101276.13;5138438;27;20376;-69
2021/12/06 06:17:38;;;;;;;;;;;;;;;22.46;5.62;101267.25;5137651;27;20350;-69
2021/12/06 06:20:04;;;;;;;;;;;;;;;22.47;5.67;101273.50;5137543;27;19918;-69
2021/12/06 06:22:29;;;;;;;;;;;;;;;22.47;5.75;101268.06;5137889;27;19911;-69
2021/12/06 06:24:54;;;;;;;;;;;;;;;22.47;5.67;101259.88;5137756;27;19917;-69
2021/12/06 06:27:20;;;;;;;;;;;;;;;22.46;5.67;101261.78;5137417;27;19943;-69
2021/12/06 06:29:45;;;;;;;;;;;;;;;22.46;5.73;101253.63;5137806;27;19919;-69
2021/12/06 06:32:10;;;;;;;;;;;;;;;22.45;5.81;101257.41;5137648;27;19911;-70
2021/12/06 06:34:35;;;;;;;;;;;;;;;22.48;5.77;101256.09;5137850;27;20333;-69
2021/12/06 06:37:01;;;;;;;;;;;;;;;22.47;5.69;101257.16;5138187;27;20385;-69
2021/12/06 06:39:26;;;;;;;;;;;;;;;22.47;5.77;101266.19;5137791;27;19916;-69
2021/12/06 06:41:51;;;;;;;;;;;;;;;22.47;5.71;101268.06;5139468;27;19915;-69
2021/12/06 06:44:17;;;;;;;;;;;;;;;22.47;5.67;101268.06;5142211;27;20273;-69
2021/12/06 06:46:43;;;;;;;;;;;;;;;22.47;5.73;101259.88;5142253;27;19950;-69
2021/12/06 06:49:08;;;;;;;;;;;;;;;22.44;5.73;101263.13;5141678;27;19918;-69
2021/12/06 06:51:34;;;;;;;;;;;;;;;22.43;5.82;101273.16;5156347;27;19911;-69
2021/12/06 06:53:59;;;;;;;;;;;;;;;22.47;5.76;101266.19;5157870;27;19911;-69
2021/12/06 06:56:24;;;;;;;;;;;;;;;22.48;5.83;101264.28;5156060;27;19911;-69
2021/12/06 06:58:50;;;;;;;;;;;;;;;22.50;5.81;101262.13;5144975;27;19911;-69
2021/12/06 07:01:16;;;;;;;;;;;;;;;22.49;5.86;101268.63;5144474;27;19911;-69
2021/12/06 07:03:41;;;;;;;;;;;;;;;22.49;5.88;101263.19;5143492;27;19938;-69
2021/12/06 07:06:06;;;;;;;;;;;;;;;22.47;5.84;101265.34;5139431;27;19962;-69
2021/12/06 07:08:32;;;;;;;;;;;;;;;22.48;5.95;101261.56;5137685;27;19918;-69
2021/12/06 07:10:57;;;;;;;;;;;;;;;22.50;6.00;101265.66;5137294;27;20386;-69
2021/12/06 07:13:24;;;;;;;;;;;;;;;22.49;5.93;101263.19;5136847;27;20292;-69
2021/12/06 07:15:50;;;;;;;;;;;;;;;22.47;5.95;101268.91;5136133;27;20018;-69
2021/12/06 07:18:15;;;;;;;;;;;;;;;22.51;5.95;101263.78;5123441;27;19974;-69
2021/12/06 07:20:40;;;;;;;;;;;;;;;22.50;6.03;101267.56;5116141;28;19919;-69
2021/12/06 07:23:08;;;;;;;;;;;;;;;22.49;6.00;101260.47;5116104;28;20322;-69
2021/12/06 07:25:34;;;;;;;;;;;;;;;22.50;6.08;101259.41;5116060;28;19916;-69
2021/12/06 07:28:00;;;;;;;;;;;;;;;22.46;6.03;101255.53;5115948;28;19918;-69
2021/12/06 07:30:25;;;;;;;;;;;;;;;22.52;6.01;101259.97;5116263;28;20371;-69
2021/12/06 07:32:52;;;;;;;;;;;;;;;22.48;6.17;101258.81;5115908;28;20281;-69
2021/12/06 07:35:17;;;;;;;;;;;;;;;22.51;5.97;101258.34;5115746;28;19947;-70
2021/12/06 07:37:43;;;;;;;;;;;;;;;22.50;5.95;101262.94;5115763;28;19938;-70
2021/12/06 07:40:08;;;;;;;;;;;;;;;22.50;6.13;101262.13;5115733;28;19912;-69
2021/12/06 07:42:34;;;;;;;;;;;;;;;22.53;6.19;101261.63;5115258;28;19964;-69
2021/12/06 07:44:59;;;;;;;;;;;;;;;22.51;6.09;101261.06;5115628;28;20004;-69
2021/12/06 07:47:24;;;;;;;;;;;;;;;22.50;6.25;101268.38;5115310;28;19916;-69
2021/12/06 07:49:49;;;;;;;;;;;;;;;22.49;6.22;101268.63;5115190;28;20007;-69
2021/12/06 07:52:15;;;;;;;;;;;;;;;22.51;6.35;101266.50;5115490;28;19937;-69
2021/12/06 07:54:40;;;;;;;;;;;;;;;22.54;6.27;101268.72;5115968;28;20338;-70
2021/12/06 07:57:06;;;;;;;;;;;;;;;22.52;6.34;101275.50;5115388;28;19919;-69
2021/12/06 07:59:31;;;;;;;;;;;;;;;22.49;6.22;101272.19;5115092;28;19915;-71
2021/12/06 08:01:56;;;;;;;;;;;;;;;22.55;6.27;101275.00;5115309;28;19911;-69
2021/12/06 08:04:21;;;;;;;;;;;;;;;22.54;6.42;101268.72;5115252;28;20250;-69
2021/12/06 08:06:47;;;;;;;;;;;;;;;22.53;6.28;101286.16;5114994;28;19912;-69
2021/12/06 08:09:14;;;;;;;;;;;;;;;22.52;6.36;101275.50;5114838;28;19949;-69
2021/12/06 08:11:39;;;;;;;;;;;;;;;22.50;6.43;101273.84;5115725;28;19912;-69
2021/12/06 08:14:05;;;;;;;;;;;;;;;22.50;6.52;101267.56;5115244;28;20273;-69
2021/12/06 08:16:31;;;;;;;;;;;;;;;22.48;6.47;101275.16;5121405;27;19923;-69
2021/12/06 08:18:58;;;;;;;;;;;;;;;22.55;6.58;101270.38;5135399;27;19911;-69
2021/12/06 08:21:24;;;;;;;;;;;;;;;22.54;6.48;101276.88;5135228;27;20345;-69
2021/12/06 08:23:49;;;;;;;;;;;;;;;22.55;6.56;101277.75;5135248;27;20024;-69
2021/12/06 08:26:15;;;;;;;;;;;;;;;22.57;6.46;101284.56;5135599;27;19938;-69
2021/12/06 08:28:41;;;;;;;;;;;;;;;22.56;6.46;101282.94;5135447;27;20006;-69
2021/12/06 08:31:06;;;;;;;;;;;;;;;22.58;6.34;101280.78;5135475;27;19958;-69
2021/12/06 08:33:31;;;;;;;;;;;;;;;22.54;6.49;101274.16;5135239;27;19912;-69
2021/12/06 08:35:57;;;;;;;;;;;;;;;22.53;6.42;101272.53;5135465;27;19925;-69
2021/12/06 08:38:23;;;;;;;;;;;;;;;22.56;6.35;101274.78;5134833;27;19911;-69
2021/12/06 08:40:48;;;;;;;;;;;;;;;22.57;6.42;101276.41;5135068;27;19965;-69
2021/12/06 08:43:16;;;;;;;;;;;;;;;22.58;6.44;101269.91;5135006;27;19911;-69
2021/12/06 08:46:02;;;;;;;;;;;;;;;22.57;6.47;101276.41;5134949;27;20002;-69
2021/12/06 08:48:28;;;;;;;;;;;;;;;22.56;6.41;101282.94;5052089;28;19919;-69
2021/12/06 08:50:53;;;;;;;;;;;;;;;22.56;6.41;101282.09;5051996;28;19912;-69
2021/12/06 08:53:19;;;;;;;;;;;;;;;22.56;6.47;101274.78;5051613;28;19920;-69
2021/12/06 08:55:44;;;;;;;;;;;;;;;22.55;6.42;101280.47;5051672;28;19912;-69
2021/12/06 08:58:09;;;;;;;;;;;;;;;22.56;6.43;101277.50;5051634;28;20410;-69
2021/12/06 09:00:35;;;;;;;;;;;;;;;22.55;6.53;101285.91;5051841;28;20252;-69
2021/12/06 09:03:00;;;;;;;;;;;;;;;22.59;6.42;101276.97;5051566;28;20010;-69
2021/12/06 09:05:28;;;;;;;;;;;;;;;22.56;6.49;101276.66;5051510;28;19913;-69
2021/12/06 09:07:53;;;;;;;;;;;;;;;22.55;6.46;101273.09;5051901;28;19913;-70
2021/12/06 09:10:18;;;;;;;;;;;;;;;22.57;6.34;101276.41;5051585;28;19920;-69
2021/12/06 09:12:43;;;;;;;;;;;;;;;22.56;6.45;101260.31;5051552;28;20325;-69
2021/12/06 09:15:10;;;;;;;;;;;;;;;22.57;6.48;101270.97;5052067;28;20393;-69
2021/12/06 09:17:35;;;;;;;;;;;;;;;22.54;6.42;101260.53;5051231;28;19928;-69
2021/12/06 09:20:01;;;;;;;;;;;;;;;22.55;6.47;101261.41;5051577;28;19916;-69
2021/12/06 09:22:26;;;;;;;;;;;;;;;22.53;6.47;101258.09;5051957;28;19912;-69
2021/12/06 09:24:51;;;;;;;;;;;;;;;22.55;6.52;101259.50;5065507;28;20230;-69
2021/12/06 09:27:18;;;;;;;;;;;;;;;22.60;6.47;101253.31;5132086;28;20002;-69
2021/12/06 09:29:43;;;;;;;;;;;;;;;22.59;6.48;101259.81;5134528;28;20353;-69
2021/12/06 09:32:09;;;;;;;;;;;;;;;22.59;6.41;101260.63;5134823;28;19964;-69
2021/12/06 09:34:35;;;;;;;;;;;;;;;22.58;6.47;101253.56;5091662;28;20365;-69
2021/12/06 09:37:01;;;;;;;;;;;;;;;22.58;6.45;101255.47;5092031;28;19955;-69
2021/12/06 09:39:26;;;;;;;;;;;;;;;22.61;6.44;101258.50;5093341;28;19954;-70
2021/12/06 09:41:51;;;;;;;;;;;;;;;22.62;6.41;101254.69;5078454;28;19965;-69
2021/12/06 09:44:17;;;;;;;;;;;;;;;22.59;6.49;101259.81;5095402;28;20362;-69
2021/12/06 09:46:43;;;;;;;;;;;;;;;22.59;6.38;101260.63;5095195;28;19912;-69
2021/12/06 09:49:13;;;;;;;;;;;;;;;22.58;6.45;101252.75;5095208;28;20350;-69
2021/12/06 09:51:39;;;;;;;;;;;;;;;22.60;6.42;101254.13;5095096;28;19912;-69
2021/12/06 09:54:04;;;;;;;;;;;;;;;22.60;6.25;101262.28;5095050;28;19922;-69
2021/12/06 09:56:31;;;;;;;;;;;;;;;22.62;6.11;101259.31;5094925;28;20033;-69
2021/12/06 09:58:57;;;;;;;;;;;;;;;22.59;5.98;101255.19;5095323;28;19919;-69
2021/12/06 10:01:24;;;;;;;;;;;;;;;22.59;6.00;101257.91;5095027;28;19912;-69
2021/12/06 10:03:49;;;;;;;;;;;;;;;22.61;5.96;101258.50;5094919;28;19919;-69
2021/12/06 10:06:18;;;;;;;;;;;;;;;22.60;5.95;101254.13;5129078;27;19911;-69
2021/12/06 10:08:44;;;;;;;;;;;;;;;22.57;5.80;101246.44;5138108;27;19915;-69
2021/12/06 10:11:10;;;;;;;;;;;;;;;22.60;5.62;101256.84;5137794;27;19911;-69
2021/12/06 10:13:35;;;;;;;;;;;;;;;22.57;5.83;101251.88;5138058;27;19916;-69
2021/12/06 10:16:01;;;;;;;;;;;;;;;22.59;5.71;101263.34;5138406;27;20018;-69
2021/12/06 10:18:26;;;;;;;;;;;;;;;22.58;5.81;101259.00;5125295;27;20026;-69
2021/12/06 10:20:51;;;;;;;;;;;;;;;22.57;5.67;101262.78;5117009;28;19919;-70
2021/12/06 10:23:17;;;;;;;;;;;;;;;22.59;5.66;101265.25;5117091;28;19915;-69
2021/12/06 10:25:46;;;;;;;;;;;;;;;22.61;5.69;101261.25;5117101;28;19912;-69
2021/12/06 10:28:12;;;;;;;;;;;;;;;22.60;5.60;101253.31;5117283;28;19919;-69
2021/12/06 10:30:44;;;;;;;;;;;;;;;22.61;5.72;101247.63;5117470;28;19912;-70
2021/12/06 10:33:10;;;;;;;;;;;;;;;22.62;5.63;101259.31;5116876;28;20010;-68
2021/12/06 10:35:38;;;;;;;;;;;;;;;22.62;5.60;101254.69;5099173;28;19912;-69
2021/12/06 10:38:03;;;;;;;;;;;;;;;22.59;5.56;101249.75;5116633;28;20354;-68
2021/12/06 10:40:30;;;;;;;;;;;;;;;22.58;5.50;101248.09;5116964;28;19964;-68
2021/12/06 10:42:55;;;;;;;;;;;;;;;22.65;5.43;101254.22;5116927;28;19985;-70
2021/12/06 10:45:25;;;;;;;;;;;;;;;22.61;5.47;101255.78;5116857;28;19991;-68
2021/12/06 10:48:08;;;;;;;;;;;;;;;22.62;5.32;101251.16;5116887;28;19911;-69
2021/12/06 10:50:34;;;;;;;;;;;;;;;22.63;5.47;101250.91;5115392;28;19994;-68
2021/12/06 10:53:00;;;;;;;;;;;;;;;22.67;5.46;101252.06;5116890;28;20004;-68
2021/12/06 10:55:27;;;;;;;;;;;;;;;22.63;5.42;101244.66;5116429;28;19994;-68
2021/12/06 10:57:52;;;;;;;;;;;;;;;;;;5117192;28;19916;-68
2021/12/06 11:00:38;;;;;;;;;;;;;;;22.61;5.40;101239.44;5116303;28;20345;-69
2021/12/06 11:03:03;;;;;;;;;;;;;;;22.58;5.39;101239.13;5116583;28;20029;-68
2021/12/06 11:05:29;;;;;;;;;;;;;;;22.61;5.39;101236.72;5116136;28;19916;-69
2021/12/06 11:08:08;;;;;;;;;;;;;;;22.60;5.29;101237.78;5116454;28;19973;-69
2021/12/06 11:10:37;;;;;;;;;;;;;;;22.60;5.34;101235.06;5116455;28;19912;-69
2021/12/06 11:13:12;;;;;;;;;;;;;;;22.61;5.39;101242.16;5116115;28;20419;-68
2021/12/06 11:15:50;;;;;;;;;;;;;;;22.62;5.32;101237.53;5116518;28;19924;-68
2021/12/06 11:18:15;;;;;;;;;;;;;;;22.61;5.21;101231.28;5134470;27;19915;-68
2021/12/06 11:20:50;;;;;;;;;;;;;;;22.62;5.27;101235.63;5118472;27;19922;-68
2021/12/06 11:23:15;;;;;;;;;;;;;;;22.62;5.20;101240.25;5136673;27;19964;-68
2021/12/06 11:25:40;;;;;;;;;;;;;;;22.63;5.23;101242.75;5118371;27;20256;-69
2021/12/06 11:28:21;;;;;;;;;;;;;;;22.62;5.40;101243.81;5136553;27;19912;-69
2021/12/06 11:30:55;;;;;;;;;;;;;;;22.61;5.33;101231.28;5136607;27;19911;-69
2021/12/06 11:33:30;;;;;;;;;;;;;;;22.60;5.23;101237.78;5136557;27;19911;-68
2021/12/06 11:35:55;;;;;;;;;;;;;;;22.61;5.17;101228.53;5136495;27;19912;-68
2021/12/06 11:38:21;;;;;;;;;;;;;;;22.61;5.29;101206.75;5136532;27;19990;-68
2021/12/06 11:40:46;;;;;;;;;;;;;;;22.61;5.25;101204.03;5136364;27;20392;-68
2021/12/06 11:43:12;;;;;;;;;;;;;;;22.60;5.19;101213.25;5136310;27;19911;-68
2021/12/06 11:45:42;;;;;;;;;;;;;;;22.61;5.27;101206.75;5136234;27;19911;-68
2021/12/06 11:48:11;;;;;;;;;;;;;;;22.60;5.25;101207.81;5136182;27;19919;-68
2021/12/06 11:50:41;;;;;;;;;;;;;;;22.60;5.07;101207.81;5136067;27;19925;-68
2021/12/06 11:53:06;;;;;;;;;;;;;;;22.61;5.15;101208.63;5135751;27;20315;-68
2021/12/06 11:55:32;;;;;;;;;;;;;;;22.59;5.09;101206.16;5135981;27;19915;-68
2021/12/06 11:57:57;;;;;;;;;;;;;;;22.62;5.05;101204.84;5135651;27;20330;-68
2021/12/06 12:00:22;;;;;;;;;;;;;;;22.59;5.05;101211.59;5135893;27;19911;-68
2021/12/06 12:02:48;;;;;;;;;;;;;;;22.59;5.02;101211.59;5135698;27;19911;-68
2021/12/06 12:05:17;;;;;;;;;;;;;;;22.58;5.04;101206.44;5135781;27;19919;-68
2021/12/06 12:07:52;;;;;;;;;;;;;;;22.58;4.96;101199.06;5135492;27;19915;-70
2021/12/06 12:10:36;;;;;;;;;;;;;;;22.57;4.93;101202.84;5135754;27;19935;-69
2021/12/06 12:13:01;;;;;;;;;;;;;;;22.56;4.90;101216.72;5135748;27;19956;-69
2021/12/06 12:15:26;;;;;;;;;;;;;;;22.59;4.99;101210.78;5136024;27;19919;-69
2021/12/06 12:17:52;;;;;;;;;;;;;;;22.60;5.02;101199.66;5135144;27;20432;-69
2021/12/06 12:20:17;;;;;;;;;;;;;;;22.58;4.95;101195.53;5135520;27;19911;-69
2021/12/06 12:22:48;;;;;;;;;;;;;;;22.60;4.92;101191.47;5135675;27;20357;-69
2021/12/06 12:25:22;;;;;;;;;;;;;;;22.60;4.88;101185.22;5135124;27;19994;-69
2021/12/06 12:30:18;;;;;;;;;;;;;;;22.62;4.74;101183.88;5135181;27;20288;-69
2021/12/06 12:32:43;;;;;;;;;;;;;;;22.61;4.85;101181.38;5135350;27;19919;-70
2021/12/06 12:35:09;;;;;;;;;;;;;;;22.61;4.89;101176.78;5117038;27;20471;-69
2021/12/06 12:37:35;;;;;;;;;;;;;;;22.61;4.86;101179.50;5134953;27;19950;-69
2021/12/06 12:40:04;;;;;;;;;;;;;;;22.60;4.86;101180.56;5135258;27;19934;-69
2021/12/06 12:42:29;;;;;;;;;;;;;;;22.59;4.73;101178.91;5116510;27;20356;-69
2021/12/06 12:44:54;;;;;;;;;;;;;;;22.58;4.90;101177.28;5135372;27;19912;-69
2021/12/06 12:47:21;;;;;;;;;;;;;;;22.58;4.89;101171.81;5135318;27;20003;-69
2021/12/06 12:49:47;;;;;;;;;;;;;;;22.58;4.83;101163.66;5134978;27;19911;-69
2021/12/06 12:52:12;;;;;;;;;;;;;;;22.58;4.83;101166.38;5116616;27;20013;-69
2021/12/06 12:54:39;;;;;;;;;;;;;;;22.57;4.76;101164.72;5135228;27;19911;-69
2021/12/06 12:57:05;;;;;;;;;;;;;;;22.59;4.89;101165.28;5116956;28;19918;-69
2021/12/06 12:59:32;;;;;;;;;;;;;;;22.59;4.86;101154.41;5135226;28;19917;-69
2021/12/06 13:02:33;;;;;;;;;;;;;;;22.63;4.80;101161.00;5135186;28;19918;-69